createdAt,value
2022-12-04T00:00:17.660Z,110.9
2022-12-04T00:02:18.746Z,104.5
2022-12-04T00:04:19.890Z,114.1
2022-12-04T00:06:24.210Z,120
2022-12-04T00:08:25.325Z,118.4
2022-12-04T00:10:26.424Z,125.8
2022-12-04T00:12:27.547Z,103.8
2022-12-04T00:14:28.692Z,106.7
2022-12-04T00:16:29.907Z,114.5
2022-12-04T00:18:30.891Z,118.8
2022-12-04T00:20:35.225Z,106.7
2022-12-04T00:22:36.345Z,111.3
2022-12-04T00:24:37.477Z,113.7
2022-12-04T00:30:40.766Z,98.4
2022-12-04T00:36:47.398Z,104.9
2022-12-04T00:38:48.478Z,91.6
2022-12-04T00:40:49.601Z,103.4
2022-12-04T00:42:50.727Z,104.9
2022-12-04T00:44:51.863Z,114.3
2022-12-04T00:46:52.946Z,115.3
2022-12-04T00:48:57.334Z,113
2022-12-04T00:50:58.439Z,101.8
2022-12-04T00:54:01.751Z,100.3
2022-12-04T00:56:03.159Z,109.6
2022-12-04T00:58:05.528Z,108.1
2022-12-04T01:00:06.571Z,114.7
2022-12-04T01:02:10.947Z,123.2
2022-12-04T01:04:12.059Z,102.2
2022-12-04T01:06:13.149Z,113.4
2022-12-04T01:08:14.366Z,102
2022-12-04T01:10:15.358Z,104.5
2022-12-04T01:12:20.685Z,110.9
2022-12-04T01:14:17.566Z,126
2022-12-04T01:16:21.986Z,114.7
2022-12-04T01:18:23.044Z,108.7
2022-12-04T01:20:24.163Z,112.2
2022-12-04T01:22:25.273Z,113.6
2022-12-04T01:24:26.411Z,100.4
2022-12-04T01:26:27.540Z,111.8
2022-12-04T01:28:28.618Z,116.2
2022-12-04T01:30:32.984Z,118.7
2022-12-04T01:36:36.359Z,96.3
2022-12-04T01:38:37.438Z,112.6
2022-12-04T01:40:38.551Z,114.1
2022-12-04T01:42:39.670Z,126.4
2022-12-04T01:44:44.060Z,118.3
2022-12-04T01:46:45.201Z,112
2022-12-04T01:48:46.277Z,110.3
2022-12-04T01:49:48.486Z,93.4
2022-12-04T01:51:49.570Z,115
2022-12-04T01:53:50.690Z,120.8
2022-12-04T01:55:51.826Z,109.7
2022-12-04T01:57:56.199Z,127.9
2022-12-04T01:59:57.500Z,112.8
2022-12-04T02:01:58.516Z,111.3
2022-12-04T02:03:59.541Z,122
2022-12-04T02:06:00.670Z,124.9
2022-12-04T02:08:01.877Z,99.1
2022-12-04T02:10:02.880Z,131.4
2022-12-04T02:12:07.255Z,111.7
2022-12-04T02:14:08.381Z,118.4
2022-12-04T02:16:09.547Z,126
2022-12-04T02:18:10.617Z,107.7
2022-12-04T02:20:11.736Z,100.7
2022-12-04T02:28:19.466Z,103.5
2022-12-04T02:30:20.575Z,104
2022-12-04T02:36:23.914Z,109.2
2022-12-04T02:38:25.033Z,117.6
2022-12-04T02:40:29.406Z,110
2022-12-04T02:42:30.496Z,126
2022-12-04T02:44:31.609Z,119.4
2022-12-04T02:53:00.806Z,118.6
2022-12-04T02:55:06.775Z,114.3
2022-12-04T02:57:03.059Z,116.5
2022-12-04T02:59:04.152Z,112.9
2022-12-04T03:03:06.380Z,112.9
2022-12-04T03:05:07.509Z,116.2
2022-12-04T03:07:11.879Z,118.2
2022-12-04T03:09:13.006Z,119.9
2022-12-04T03:11:14.125Z,121.9
2022-12-04T03:13:15.213Z,120.9
2022-12-04T03:15:16.352Z,108.8
2022-12-04T03:17:17.477Z,110.1
2022-12-04T03:21:22.942Z,107.9
2022-12-04T03:23:24.065Z,122.3
2022-12-04T03:25:25.178Z,105.9
2022-12-04T03:27:26.287Z,110.1
2022-12-04T03:33:29.620Z,116.7
2022-12-04T03:37:35.236Z,134.4
2022-12-04T03:39:36.197Z,116.8
2022-12-04T03:40:38.384Z,122.2
2022-12-04T03:42:39.639Z,114.2
2022-12-04T03:44:40.627Z,143.2
2022-12-04T03:46:41.800Z,113.3
2022-12-04T03:48:46.112Z,125.2
2022-12-04T03:50:47.220Z,117.7
2022-12-04T03:52:48.375Z,123.9
2022-12-04T03:54:49.450Z,109.9
2022-12-04T03:56:50.546Z,114.2
2022-12-04T03:58:51.681Z,122.7
2022-12-04T04:00:52.780Z,112
2022-12-04T04:02:57.204Z,118.3
2022-12-04T04:04:58.246Z,123.1
2022-12-04T04:06:59.335Z,113.1
2022-12-04T04:09:00.442Z,117.3
2022-12-04T04:11:01.548Z,117.1
2022-12-04T04:13:02.642Z,125.1
2022-12-04T04:15:03.788Z,113.4
2022-12-04T04:17:08.139Z,124.3
2022-12-04T04:19:09.254Z,117
2022-12-04T04:21:10.379Z,137.7
2022-12-04T04:23:11.471Z,122.6
2022-12-04T04:25:12.593Z,129.6
2022-12-04T04:27:13.706Z,107.3
2022-12-04T04:29:14.802Z,126.8
2022-12-04T04:31:19.183Z,124.7
2022-12-04T04:33:20.267Z,111.9
2022-12-04T04:35:21.405Z,126.5
2022-12-04T04:36:23.620Z,126.8
2022-12-04T04:38:24.713Z,134.1
2022-12-04T04:40:25.798Z,116.3
2022-12-04T04:44:31.291Z,114.9
2022-12-04T04:46:32.469Z,119.5
2022-12-04T04:48:33.507Z,142.5
2022-12-04T04:58:42.292Z,117.4
2022-12-04T05:00:43.391Z,107.3
2022-12-04T05:02:44.600Z,111.8
2022-12-04T05:12:53.312Z,121.6
2022-12-04T05:14:54.457Z,120.7
2022-12-04T05:16:58.920Z,99.1
2022-12-04T05:18:56.657Z,117.1
2022-12-04T05:20:57.756Z,116
2022-12-04T05:22:58.876Z,110.7
2022-12-04T05:25:00.026Z,106.5
2022-12-04T05:27:04.361Z,107.6
2022-12-04T05:29:05.430Z,105
2022-12-04T05:34:09.861Z,103
2022-12-04T05:36:10.947Z,120.8
2022-12-04T05:44:18.662Z,110.5
2022-12-04T05:46:19.786Z,102.8
2022-12-04T05:48:20.914Z,111.1
2022-12-04T05:50:22.031Z,105.6
2022-12-04T05:52:23.098Z,117.4
2022-12-04T05:54:27.472Z,114.4
2022-12-04T05:56:28.593Z,104.5
2022-12-04T05:58:29.693Z,122.3
2022-12-04T06:00:30.786Z,108
2022-12-04T06:02:32.076Z,113.1
2022-12-04T06:04:33.045Z,113.1
2022-12-04T06:06:34.140Z,112.3
2022-12-04T06:08:38.514Z,118.2
2022-12-04T06:10:39.613Z,121.8
2022-12-04T06:12:40.725Z,114.4
2022-12-04T06:14:41.854Z,128.2
2022-12-04T06:16:43.059Z,106
2022-12-04T06:18:44.058Z,108.2
2022-12-04T06:20:45.209Z,100.5
2022-12-04T06:22:49.573Z,121.3
2022-12-04T06:24:50.686Z,109.8
2022-12-04T06:27:25.500Z,108.2
2022-12-04T06:29:20.301Z,112.9
2022-12-04T06:31:21.539Z,100.5
2022-12-04T06:33:22.541Z,110.6
2022-12-04T06:35:26.907Z,117.7
2022-12-04T06:37:28.010Z,108.7
2022-12-04T06:39:29.131Z,119.9
2022-12-04T06:41:30.241Z,112.4
2022-12-04T06:43:31.376Z,106.7
2022-12-04T06:45:32.523Z,125.9
2022-12-04T06:47:35.143Z,115.6
2022-12-04T06:49:39.456Z,110.9
2022-12-04T06:51:40.570Z,111.6
2022-12-04T06:53:41.656Z,109
2022-12-04T06:55:42.772Z,105.1
2022-12-04T06:57:43.868Z,125.9
2022-12-04T06:59:44.990Z,121.7
2022-12-04T07:01:46.099Z,121.8
2022-12-04T07:03:51.769Z,123.6
2022-12-04T07:05:51.579Z,115.9
2022-12-04T07:07:52.712Z,107
2022-12-04T07:09:54.108Z,135.6
2022-12-04T07:11:54.983Z,115
2022-12-04T07:13:56.030Z,127.3
2022-12-04T07:15:57.150Z,120.6
2022-12-04T07:18:01.535Z,104.5
2022-12-04T07:20:02.642Z,121.2
2022-12-04T07:22:03.772Z,116.9
2022-12-04T07:35:15.880Z,103
2022-12-04T07:37:16.979Z,116.9
2022-12-04T07:45:24.699Z,119.8
2022-12-04T07:47:25.801Z,118.4
2022-12-04T07:51:28.027Z,126.1
2022-12-04T07:53:29.136Z,116.9
2022-12-04T07:55:30.244Z,124.1
2022-12-04T07:57:31.359Z,133.7
2022-12-04T07:59:35.716Z,104.6
2022-12-04T08:01:36.932Z,138.5
2022-12-04T08:03:42.104Z,111.3
2022-12-04T08:05:39.056Z,122.5
2022-12-04T08:07:40.213Z,118.4
2022-12-04T08:09:41.287Z,117.6
2022-12-04T08:11:42.398Z,130.1
2022-12-04T08:13:46.766Z,117.6
2022-12-04T08:15:47.875Z,126.1
2022-12-04T08:17:48.969Z,136.5
2022-12-04T08:20:52.276Z,112.7
2022-12-04T08:22:53.508Z,134.1
2022-12-04T08:24:54.511Z,118.7
2022-12-04T08:26:58.886Z,118.8
2022-12-04T08:28:59.972Z,120.4
2022-12-04T08:31:01.121Z,117.6
2022-12-04T08:33:02.229Z,129.8
2022-12-04T08:35:03.324Z,115
2022-12-04T08:39:05.529Z,110.5
2022-12-04T08:41:09.897Z,118
2022-12-04T08:43:11.017Z,112.8
2022-12-04T08:45:12.110Z,119.2
2022-12-04T08:47:13.216Z,109
2022-12-04T08:51:15.461Z,89.9
2022-12-04T08:53:16.597Z,98.9
2022-12-04T08:55:20.946Z,100.8
2022-12-04T08:57:22.065Z,109.4
2022-12-04T08:59:23.160Z,103.9
2022-12-04T09:01:24.317Z,119.1
2022-12-04T09:03:30.764Z,100.1
2022-12-04T09:05:26.499Z,88.5
2022-12-04T09:07:27.655Z,89.5
2022-12-04T09:09:32.127Z,98.7
2022-12-04T09:11:33.264Z,97
2022-12-04T09:13:34.339Z,89.6
2022-12-04T09:16:37.642Z,96.3
2022-12-04T09:20:39.892Z,83.6
2022-12-04T09:23:02.765Z,74.3
2022-12-04T09:24:45.359Z,84.9
2022-12-04T09:26:46.475Z,74.5
2022-12-04T09:28:47.585Z,74.3
2022-12-04T09:30:48.758Z,81.5
2022-12-04T09:32:49.787Z,68.8
2022-12-04T09:34:52.815Z,75
2022-12-04T09:36:55.300Z,77.7
2022-12-04T09:38:56.445Z,69.9
2022-12-04T09:40:57.548Z,61.4
2022-12-04T09:42:58.640Z,76.7
2022-12-04T09:44:59.774Z,62.9
2022-12-04T09:47:01.032Z,55.8
2022-12-04T09:49:02.025Z,73.7
2022-12-04T09:51:06.390Z,61
2022-12-04T09:53:07.502Z,69.6
2022-12-04T09:55:08.637Z,69.4
2022-12-04T09:57:09.762Z,59
2022-12-04T09:59:10.884Z,58.8
2022-12-04T10:01:12.003Z,57.3
2022-12-04T10:03:13.228Z,56.9
2022-12-04T10:05:17.579Z,60.4
2022-12-04T10:07:18.627Z,61.2
2022-12-04T10:09:19.742Z,54.3
2022-12-04T10:11:48.236Z,56.4
2022-12-04T10:13:49.339Z,60.8
2022-12-04T10:15:50.527Z,60.7
2022-12-04T10:17:54.870Z,58.1
2022-12-04T10:19:56.407Z,53.3
2022-12-04T10:21:57.123Z,46.5
2022-12-04T10:25:59.356Z,55.5
2022-12-04T10:28:00.487Z,65.3
2022-12-04T10:30:01.614Z,47.2
2022-12-04T10:32:06.002Z,56
2022-12-04T10:34:07.094Z,50.3
2022-12-04T10:36:08.254Z,43.2
2022-12-04T10:38:09.378Z,49.9
2022-12-04T10:42:11.620Z,40.2
2022-12-04T10:44:12.735Z,49.9
2022-12-04T10:46:17.156Z,44.2
2022-12-04T10:48:18.253Z,42.7
2022-12-04T10:50:19.370Z,43.4
2022-12-04T10:52:20.538Z,45.8
2022-12-04T10:54:21.593Z,48
2022-12-04T10:56:22.731Z,39.7
2022-12-04T10:58:23.852Z,48.2
2022-12-04T11:00:28.221Z,41.7
2022-12-04T11:02:29.556Z,42.6
2022-12-04T11:04:30.469Z,47.3
2022-12-04T11:05:32.701Z,48
2022-12-04T11:07:33.878Z,43.7
2022-12-04T11:09:34.956Z,46
2022-12-04T11:11:36.124Z,40
2022-12-04T11:13:40.460Z,44.8
2022-12-04T11:15:41.638Z,38.3
2022-12-04T11:17:42.737Z,39.1
2022-12-04T11:19:43.884Z,43.6
2022-12-04T11:21:45.013Z,49.5
2022-12-04T11:23:46.149Z,39.8
2022-12-04T11:25:47.278Z,45.1
2022-12-04T11:27:51.664Z,51
2022-12-04T11:29:53.106Z,42.9
2022-12-04T11:31:54.022Z,43.9
2022-12-04T11:33:55.045Z,39
2022-12-04T11:35:56.186Z,36.8
2022-12-04T11:37:57.307Z,38.9
2022-12-04T11:44:03.995Z,55.6
2022-12-04T11:46:05.193Z,43.2
2022-12-04T11:48:06.291Z,32.3
2022-12-04T11:54:09.658Z,38.9
2022-12-04T11:56:14.040Z,33.3
2022-12-04T11:58:15.192Z,50.4
2022-12-04T12:00:16.414Z,36.2
2022-12-04T12:01:18.489Z,35.9
2022-12-04T12:03:19.681Z,43.4
2022-12-04T12:05:20.773Z,33.8
2022-12-04T12:07:21.903Z,44.7
2022-12-04T12:11:27.429Z,47.1
2022-12-04T12:13:28.587Z,41.7
2022-12-04T12:15:29.687Z,48.7
2022-12-04T12:17:30.820Z,37.7
2022-12-04T12:19:31.961Z,48.4
2022-12-04T12:21:33.106Z,44.4
2022-12-04T12:23:37.487Z,44.6
2022-12-04T12:25:38.611Z,41.9
2022-12-04T12:27:39.786Z,48.1
2022-12-04T12:31:42.072Z,43.7
2022-12-04T12:37:50.197Z,52.6
2022-12-04T12:39:51.367Z,41.6
2022-12-04T12:41:52.491Z,60.1
2022-12-04T12:43:53.657Z,49.3
2022-12-04T12:47:55.902Z,50.7
2022-12-04T12:49:57.341Z,42.8
2022-12-04T12:52:01.468Z,58.4
2022-12-04T12:54:02.609Z,45.3
2022-12-04T12:56:03.733Z,52.7
2022-12-04T12:57:05.942Z,51.4
2022-12-04T12:59:07.095Z,60.6
2022-12-04T13:01:08.291Z,60.1
2022-12-04T13:03:09.494Z,53.9
2022-12-04T13:05:13.776Z,62.4
2022-12-04T13:09:16.055Z,56.8
2022-12-04T13:17:20.607Z,53.9
2022-12-04T13:19:25.031Z,71.9
2022-12-04T13:25:28.451Z,62.2
2022-12-04T13:27:29.603Z,67.2
2022-12-04T13:29:30.745Z,73
2022-12-04T13:31:31.966Z,61.9
2022-12-04T13:33:36.283Z,68
2022-12-04T13:35:37.442Z,71.5
2022-12-04T13:37:38.530Z,75.3
2022-12-04T13:39:39.683Z,73.9
2022-12-04T13:41:40.840Z,61.3
2022-12-04T13:45:43.159Z,80.3
2022-12-04T13:47:47.532Z,72.9
2022-12-04T13:51:49.770Z,81.9
2022-12-04T13:58:20.547Z,80.1
2022-12-04T14:00:24.954Z,84
2022-12-04T14:02:26.145Z,78.2
2022-12-04T14:04:27.216Z,83.7
2022-12-04T14:08:29.491Z,86.2
2022-12-04T14:10:30.657Z,90.9
2022-12-04T14:12:31.785Z,85.7
2022-12-04T14:14:36.169Z,77.4
2022-12-04T14:16:37.430Z,74.9
2022-12-04T14:18:38.490Z,88.4
2022-12-04T14:20:39.613Z,84.2
2022-12-04T14:22:40.797Z,78.7
2022-12-04T14:24:42.033Z,88.5
2022-12-04T14:27:10.117Z,80.2
2022-12-04T14:28:47.448Z,74.5
2022-12-04T14:30:48.635Z,76
2022-12-04T14:32:49.732Z,76.9
2022-12-04T14:34:50.865Z,91
2022-12-04T14:36:52.023Z,88.2
2022-12-04T14:38:53.158Z,80.4
2022-12-04T14:40:54.306Z,75.7
2022-12-04T14:42:58.665Z,84.5
2022-12-04T14:44:59.932Z,77
2022-12-04T14:47:00.970Z,82.8
2022-12-04T14:48:03.212Z,75.7
2022-12-04T14:50:04.454Z,91.5
2022-12-04T14:52:05.458Z,73.7
2022-12-04T14:54:06.582Z,68
2022-12-04T14:56:10.985Z,76.2
2022-12-04T14:58:12.137Z,84.7
2022-12-04T15:00:13.268Z,81.2
2022-12-04T15:02:14.368Z,75.6
2022-12-04T15:06:16.668Z,71
2022-12-04T15:08:17.902Z,76.1
2022-12-04T15:10:22.253Z,91.2
2022-12-04T15:12:23.358Z,67.6
2022-12-04T15:14:24.512Z,69.6
2022-12-04T15:16:25.679Z,74.4
2022-12-04T15:18:26.802Z,66.7
2022-12-04T15:20:27.965Z,74.8
2022-12-04T15:22:29.084Z,85.2
2022-12-04T15:24:33.479Z,80.9
2022-12-04T15:26:34.674Z,68.6
2022-12-04T15:28:35.788Z,85.8
2022-12-04T15:30:36.926Z,64.3
2022-12-04T15:32:38.080Z,71
2022-12-04T15:34:39.179Z,64
2022-12-04T15:36:40.484Z,74.1
2022-12-04T15:38:44.783Z,77.9
2022-12-04T15:40:45.884Z,77.3
2022-12-04T15:42:47.028Z,91
2022-12-04T15:45:50.377Z,68.5
2022-12-04T15:47:51.511Z,74.3
2022-12-04T15:49:52.821Z,83.3
2022-12-04T15:51:57.098Z,71.1
2022-12-04T15:53:58.258Z,73
2022-12-04T15:55:59.375Z,79.3
2022-12-04T15:58:00.523Z,83.9
2022-12-04T16:00:01.758Z,75.9
2022-12-04T16:02:02.901Z,67.7
2022-12-04T16:04:04.018Z,74.6
2022-12-04T16:06:08.399Z,75.3
2022-12-04T16:08:09.650Z,62.3
2022-12-04T16:10:10.711Z,71.9
2022-12-04T16:12:11.844Z,72.9
2022-12-04T16:14:13.029Z,58.2
2022-12-04T16:18:15.339Z,72.9
2022-12-04T16:20:19.751Z,77.4
2022-12-04T16:22:20.896Z,74
2022-12-04T16:24:22.078Z,76.9
2022-12-04T16:28:24.404Z,63.9
2022-12-04T16:30:25.547Z,78
2022-12-04T16:32:26.702Z,67
2022-12-04T16:34:31.130Z,60.8
2022-12-04T16:36:32.300Z,70.2
2022-12-04T16:38:33.440Z,72.9
2022-12-04T16:39:38.312Z,63.8
2022-12-04T16:45:39.101Z,77.6
2022-12-04T16:47:43.527Z,65.7
2022-12-04T16:49:44.699Z,67
2022-12-04T16:51:45.854Z,66.4
2022-12-04T16:53:47.019Z,63.3
2022-12-04T16:55:48.170Z,55.9
2022-12-04T16:57:49.331Z,61.6
2022-12-04T16:59:50.526Z,73.3
2022-12-04T17:01:54.989Z,69.2
2022-12-04T17:03:56.142Z,74.3
2022-12-04T17:05:57.265Z,72
2022-12-04T17:07:58.496Z,64.2
2022-12-04T17:09:59.577Z,62.3
2022-12-04T17:12:00.740Z,64.1
2022-12-04T17:14:02.029Z,77.2
2022-12-04T17:16:06.388Z,68.2
2022-12-04T17:18:11.985Z,72.2
2022-12-04T17:20:08.667Z,78.7
2022-12-04T17:22:09.826Z,79.4
2022-12-04T17:24:10.998Z,76.4
2022-12-04T17:26:12.166Z,82.8
2022-12-04T17:28:13.321Z,73.2
2022-12-04T17:30:17.721Z,70.2
2022-12-04T17:32:18.918Z,81.1
2022-12-04T17:34:20.077Z,78.7
2022-12-04T17:40:50.850Z,102.5
2022-12-04T17:42:55.277Z,102.3
2022-12-04T17:44:56.599Z,84.7
2022-12-04T17:46:57.669Z,91.7
2022-12-04T17:49:02.597Z,87.8
2022-12-04T17:50:59.902Z,106.2
2022-12-04T17:53:01.057Z,96.7
2022-12-04T17:55:02.204Z,80.9
2022-12-04T17:57:06.646Z,102.4
2022-12-04T17:59:07.770Z,90.7
2022-12-04T18:01:08.994Z,88.5
2022-12-04T18:03:10.176Z,89.3
2022-12-04T18:05:11.260Z,93.9
2022-12-04T18:11:17.975Z,124.7
2022-12-04T18:15:20.289Z,97.1
2022-12-04T18:17:21.447Z,107.4
2022-12-04T18:23:24.893Z,100.3
2022-12-04T18:30:35.412Z,99
2022-12-04T18:32:36.470Z,93.3
2022-12-04T18:34:37.614Z,90.5
2022-12-04T18:36:38.792Z,100.8
2022-12-04T18:38:43.179Z,94.3
2022-12-04T18:40:44.414Z,92.9
2022-12-04T18:42:45.482Z,104
2022-12-04T18:44:46.652Z,90.2
2022-12-04T18:46:47.770Z,97.5
2022-12-04T18:48:48.926Z,99.3
2022-12-04T18:50:50.194Z,108.4
2022-12-04T18:52:59.975Z,94.3
2022-12-04T18:54:55.663Z,91.8
2022-12-04T18:56:56.829Z,104.1
2022-12-04T18:58:57.960Z,90.5
2022-12-04T19:00:59.305Z,82.5
2022-12-04T19:03:00.316Z,89.7
2022-12-04T19:05:01.502Z,108.2
2022-12-04T19:07:05.908Z,109
2022-12-04T19:09:07.050Z,113
2022-12-04T19:11:08.255Z,112.4
2022-12-04T19:13:09.321Z,120.4
2022-12-04T19:15:10.497Z,107.2
2022-12-04T19:17:11.637Z,111.7
2022-12-04T19:19:12.774Z,102.7
2022-12-04T19:21:17.199Z,107.6
2022-12-04T19:23:18.347Z,108.1
2022-12-04T19:25:19.470Z,99.7
2022-12-04T19:26:21.675Z,110.9
2022-12-04T19:28:22.837Z,103.3
2022-12-04T19:30:23.975Z,106.2
2022-12-04T19:32:25.188Z,115.3
2022-12-04T19:34:29.546Z,128.1
2022-12-04T19:36:30.686Z,99.9
2022-12-04T19:38:31.852Z,120.9
2022-12-04T19:40:33.006Z,112.7
2022-12-04T19:44:49.372Z,108.2
2022-12-04T19:46:36.486Z,113.5
2022-12-04T19:48:40.888Z,106.7
2022-12-04T19:50:42.047Z,108.3
2022-12-04T19:52:43.220Z,117.9
2022-12-04T19:54:44.369Z,106.2
2022-12-04T19:56:45.522Z,111.5
2022-12-04T19:58:46.672Z,106.7
2022-12-04T20:00:47.864Z,102.3
2022-12-04T20:02:52.294Z,111.5
2022-12-04T20:04:53.361Z,118
2022-12-04T20:08:56.014Z,116.7
2022-12-04T20:10:57.174Z,113.8
2022-12-04T20:12:58.329Z,108.4
2022-12-04T20:14:59.517Z,106.9
2022-12-04T20:17:04.054Z,113.5
2022-12-04T20:19:05.049Z,121.9
2022-12-04T20:21:06.216Z,111.3
2022-12-04T20:26:10.750Z,111.1
2022-12-04T20:28:14.596Z,110.9
2022-12-04T20:30:16.330Z,100.3
2022-12-04T20:32:17.515Z,94.9
2022-12-04T20:34:18.672Z,99.7
2022-12-04T20:36:19.801Z,105.8
2022-12-04T20:38:20.971Z,121.4
2022-12-04T20:40:22.128Z,111.2
2022-12-04T20:42:24.136Z,109.8
2022-12-04T20:44:27.711Z,118.1
2022-12-04T20:46:29.034Z,127.3
2022-12-04T20:48:30.032Z,108.4
2022-12-04T20:50:31.188Z,100.6
2022-12-04T20:52:32.366Z,104.4
2022-12-04T20:54:40.772Z,101.2
2022-12-04T20:56:34.648Z,114.3
2022-12-04T20:58:39.100Z,103.2
2022-12-04T21:00:40.265Z,100.6
2022-12-04T21:02:41.459Z,101.7
2022-12-04T21:04:42.573Z,119.1
2022-12-04T21:06:43.725Z,100.6
2022-12-04T21:08:44.908Z,117
2022-12-04T21:10:46.077Z,106.7
2022-12-04T21:12:50.518Z,102.9
2022-12-04T21:14:51.664Z,101.1
2022-12-04T21:16:52.819Z,96.3
2022-12-04T21:19:21.282Z,100.7
2022-12-04T21:21:22.427Z,107.7
2022-12-04T21:23:23.566Z,98.5
2022-12-04T21:25:27.984Z,104.1
2022-12-04T21:27:29.154Z,96
2022-12-04T21:33:32.641Z,89.7
2022-12-04T21:35:33.825Z,109.4
2022-12-04T21:37:34.959Z,99.5
2022-12-04T21:41:40.570Z,85.3
2022-12-04T21:43:41.732Z,89.7
2022-12-04T21:45:42.914Z,77.8
2022-12-04T21:47:44.118Z,94.9
2022-12-04T21:49:45.256Z,101.6
2022-12-04T21:51:57.434Z,91.1
2022-12-04T22:01:55.614Z,89.4
2022-12-04T22:03:56.715Z,85.3
2022-12-04T22:13:06.855Z,94.9
2022-12-04T22:15:07.999Z,88.1
2022-12-04T22:17:09.193Z,86.8
2022-12-04T22:19:10.368Z,83.5
2022-12-04T22:21:14.951Z,88.6
2022-12-04T22:23:15.999Z,93.7
2022-12-04T22:25:17.170Z,86.6
2022-12-04T22:27:18.293Z,89.3
2022-12-04T22:31:20.818Z,92.1
2022-12-04T22:33:21.792Z,107.6
2022-12-04T22:35:26.261Z,92.6
2022-12-04T22:37:27.423Z,84.2
2022-12-04T22:39:28.592Z,92.5
2022-12-04T22:41:29.771Z,98.9
2022-12-04T22:43:32.426Z,90.7
2022-12-04T22:45:32.140Z,86.2
2022-12-04T22:47:33.312Z,89.4
2022-12-04T22:49:37.752Z,82.9
2022-12-04T22:51:39.025Z,75.9
2022-12-04T22:53:40.064Z,83.9
2022-12-04T22:55:41.258Z,92.5
2022-12-04T22:57:42.409Z,85.5
2022-12-04T22:59:43.589Z,100.1
2022-12-04T23:01:44.754Z,84.1
2022-12-04T23:03:49.213Z,96.5
2022-12-04T23:05:50.370Z,75.9
2022-12-04T23:07:51.633Z,87.3
2022-12-04T23:14:57.257Z,88.1
2022-12-04T23:17:01.776Z,86.8
2022-12-04T23:19:02.828Z,97.3
2022-12-04T23:21:04.028Z,80.8
2022-12-04T23:25:06.356Z,80.4
2022-12-04T23:27:07.541Z,80.7
2022-12-04T23:31:13.170Z,83.8
2022-12-04T23:33:14.300Z,90.4
2022-12-04T23:35:15.471Z,90.8
2022-12-04T23:37:16.646Z,84.9
2022-12-04T23:39:17.805Z,86.6
2022-12-04T23:41:18.976Z,69.8
2022-12-04T23:43:20.127Z,79.5
2022-12-04T23:45:24.554Z,75
2022-12-04T23:47:25.712Z,81.5
2022-12-04T23:49:26.920Z,81.2
2022-12-04T23:51:28.096Z,85.4
2022-12-04T23:53:29.255Z,81.3
2022-12-04T23:55:34.362Z,81.2
2022-12-04T23:57:31.582Z,84.7
2022-12-04T23:59:35.972Z,80.9
